createdAt,value
2023-05-03T00:00:42.499Z,13.24
2023-05-03T00:01:42.533Z,13.20
2023-05-03T00:02:42.604Z,13.13
2023-05-03T00:03:42.470Z,13.14
2023-05-03T00:04:42.469Z,13.13
2023-05-03T00:05:42.498Z,13.14
2023-05-03T00:06:42.503Z,13.06
2023-05-03T00:07:42.426Z,13.08
2023-05-03T00:08:42.414Z,13.08
2023-05-03T00:09:42.403Z,13.16
2023-05-03T00:10:42.392Z,13.21
2023-05-03T00:11:42.456Z,13.09
2023-05-03T00:12:42.375Z,12.96
2023-05-03T00:13:42.364Z,13.06
2023-05-03T00:14:42.341Z,13.14
2023-05-03T00:15:42.341Z,13.08
2023-05-03T00:16:42.365Z,13.06
2023-05-03T00:17:42.356Z,13.06
2023-05-03T00:18:42.304Z,13.06
2023-05-03T00:19:42.298Z,13.11
2023-05-03T00:20:42.297Z,13.13
2023-05-03T00:21:42.285Z,13.06
2023-05-03T00:22:42.280Z,13.04
2023-05-03T00:23:42.263Z,12.96
2023-05-03T00:24:42.240Z,12.96
2023-05-03T00:25:42.233Z,13.02
2023-05-03T00:26:42.223Z,12.96
2023-05-03T00:27:42.267Z,12.91
2023-05-03T00:28:42.200Z,12.95
2023-05-03T00:29:42.192Z,12.96
2023-05-03T00:30:42.214Z,12.98
2023-05-03T00:31:42.380Z,12.99
2023-05-03T00:32:42.201Z,12.93
2023-05-03T00:33:42.146Z,12.93
2023-05-03T00:34:42.131Z,12.88
2023-05-03T00:35:42.124Z,12.93
2023-05-03T00:36:42.151Z,12.86
2023-05-03T00:37:42.118Z,12.83
2023-05-03T00:38:42.100Z,12.80
2023-05-03T00:39:42.080Z,12.83
2023-05-03T00:40:42.066Z,12.84
2023-05-03T00:41:42.100Z,12.79
2023-05-03T00:42:42.062Z,12.77
2023-05-03T00:43:42.080Z,12.79
2023-05-03T00:44:42.027Z,12.72
2023-05-03T00:45:42.037Z,12.76
2023-05-03T00:46:42.102Z,12.79
2023-05-03T00:47:42.039Z,12.77
2023-05-03T00:48:41.984Z,12.71
2023-05-03T00:49:41.980Z,12.72
2023-05-03T00:50:41.957Z,12.66
2023-05-03T00:51:41.949Z,12.73
2023-05-03T00:52:41.962Z,12.62
2023-05-03T00:53:41.929Z,12.68
2023-05-03T00:54:41.917Z,12.65
2023-05-03T00:55:41.909Z,12.61
2023-05-03T00:56:51.229Z,12.58
2023-05-03T00:57:42.920Z,12.62
2023-05-03T00:58:41.872Z,12.54
2023-05-03T00:59:41.886Z,12.59
2023-05-03T01:00:41.855Z,12.51
2023-05-03T01:01:41.942Z,12.47
2023-05-03T01:02:41.940Z,12.54
2023-05-03T01:03:42.176Z,12.50
2023-05-03T01:04:43.240Z,12.46
2023-05-03T01:05:41.797Z,12.47
2023-05-03T01:06:41.841Z,12.46
2023-05-03T01:07:41.775Z,12.47
2023-05-03T01:08:41.784Z,12.36
2023-05-03T01:09:41.754Z,12.40
2023-05-03T01:10:41.736Z,12.47
2023-05-03T01:11:41.751Z,12.43
2023-05-03T01:12:41.719Z,12.36
2023-05-03T01:13:41.708Z,12.41
2023-05-03T01:14:41.726Z,12.35
2023-05-03T01:15:41.708Z,12.40
2023-05-03T01:16:41.753Z,12.35
2023-05-03T01:17:41.693Z,12.40
2023-05-03T01:18:41.693Z,12.38
2023-05-03T01:19:41.657Z,12.29
2023-05-03T01:20:41.626Z,12.23
2023-05-03T01:21:41.615Z,12.26
2023-05-03T01:22:41.616Z,12.28
2023-05-03T01:23:41.598Z,12.28
2023-05-03T01:24:41.618Z,12.18
2023-05-03T01:25:41.588Z,12.26
2023-05-03T01:26:41.567Z,12.26
2023-05-03T01:27:41.557Z,12.21
2023-05-03T01:28:41.539Z,12.11
2023-05-03T01:29:41.580Z,12.13
2023-05-03T01:30:41.522Z,12.21
2023-05-03T01:31:41.559Z,12.13
2023-05-03T01:32:41.536Z,12.15
2023-05-03T01:33:41.486Z,12.00
2023-05-03T01:34:41.493Z,11.97
2023-05-03T01:35:41.467Z,12.07
2023-05-03T01:36:41.452Z,12.05
2023-05-03T01:37:41.477Z,12.08
2023-05-03T01:38:41.434Z,12.05
2023-05-03T01:39:41.445Z,12.00
2023-05-03T01:40:41.424Z,12.03
2023-05-03T01:41:41.401Z,11.89
2023-05-03T01:42:41.392Z,11.87
2023-05-03T01:43:41.376Z,11.89
2023-05-03T01:44:41.390Z,11.97
2023-05-03T01:45:41.459Z,11.87
2023-05-03T01:46:41.342Z,11.88
2023-05-03T01:47:41.378Z,11.91
2023-05-03T01:48:41.325Z,11.91
2023-05-03T01:49:41.340Z,11.88
2023-05-03T01:50:41.323Z,11.82
2023-05-03T01:51:41.292Z,11.79
2023-05-03T01:52:41.279Z,11.84
2023-05-03T01:53:41.282Z,11.80
2023-05-03T01:54:41.518Z,11.84
2023-05-03T01:55:41.280Z,11.80
2023-05-03T01:56:41.249Z,11.74
2023-05-03T01:57:41.233Z,11.76
2023-05-03T01:58:41.242Z,11.85
2023-05-03T01:59:41.230Z,11.77
2023-05-03T02:00:41.221Z,11.77
2023-05-03T02:01:41.254Z,11.74
2023-05-03T02:02:41.226Z,11.73
2023-05-03T02:03:41.188Z,11.74
2023-05-03T02:04:41.251Z,11.70
2023-05-03T02:05:41.169Z,11.70
2023-05-03T02:06:41.195Z,11.73
2023-05-03T02:07:41.121Z,11.66
2023-05-03T02:08:41.110Z,11.66
2023-05-03T02:09:41.136Z,11.56
2023-05-03T02:10:41.118Z,11.61
2023-05-03T02:11:41.110Z,11.64
2023-05-03T02:12:41.070Z,11.59
2023-05-03T02:13:41.058Z,11.54
2023-05-03T02:14:41.052Z,11.64
2023-05-03T02:15:41.035Z,11.59
2023-05-03T02:16:41.092Z,11.52
2023-05-03T02:17:41.054Z,11.51
2023-05-03T02:18:41.002Z,11.51
2023-05-03T02:19:41.009Z,11.48
2023-05-03T02:20:40.983Z,11.52
2023-05-03T02:21:41.002Z,11.48
2023-05-03T02:22:40.981Z,11.54
2023-05-03T02:23:40.941Z,11.45
2023-05-03T02:24:40.938Z,11.49
2023-05-03T02:25:40.952Z,11.49
2023-05-03T02:26:40.922Z,11.46
2023-05-03T02:27:40.916Z,11.41
2023-05-03T02:28:40.897Z,11.43
2023-05-03T02:29:40.902Z,11.46
2023-05-03T02:30:40.890Z,11.33
2023-05-03T02:31:40.890Z,11.28
2023-05-03T02:32:40.921Z,11.38
2023-05-03T02:33:40.858Z,11.37
2023-05-03T02:34:40.844Z,11.28
2023-05-03T02:35:40.841Z,11.30
2023-05-03T02:36:40.817Z,11.31
2023-05-03T02:37:40.794Z,11.31
2023-05-03T02:38:40.810Z,11.27
2023-05-03T02:39:40.784Z,11.22
2023-05-03T02:40:40.793Z,11.22
2023-05-03T02:41:40.761Z,11.22
2023-05-03T02:42:40.758Z,11.16
2023-05-03T02:43:40.748Z,11.19
2023-05-03T02:44:40.727Z,11.16
2023-05-03T02:45:40.713Z,11.11
2023-05-03T02:46:40.797Z,11.13
2023-05-03T02:47:40.749Z,11.13
2023-05-03T02:48:40.690Z,11.13
2023-05-03T02:49:40.684Z,11.05
2023-05-03T02:50:40.658Z,11.04
2023-05-03T02:51:40.663Z,11.11
2023-05-03T02:52:40.661Z,11.01
2023-05-03T02:53:40.639Z,10.94
2023-05-03T02:54:40.645Z,11.04
2023-05-03T02:55:40.602Z,10.98
2023-05-03T02:56:40.587Z,11.08
2023-05-03T02:57:42.231Z,11.03
2023-05-03T02:58:40.597Z,10.97
2023-05-03T02:59:40.607Z,11.04
2023-05-03T03:00:40.545Z,11.04
2023-05-03T03:01:40.558Z,10.97
2023-05-03T03:02:40.606Z,10.97
2023-05-03T03:03:40.668Z,10.95
2023-05-03T03:04:40.502Z,10.93
2023-05-03T03:05:40.490Z,10.95
2023-05-03T03:06:40.528Z,10.82
2023-05-03T03:07:40.486Z,10.82
2023-05-03T03:08:40.485Z,10.87
2023-05-03T03:09:40.450Z,10.85
2023-05-03T03:10:40.435Z,10.85
2023-05-03T03:11:40.418Z,10.85
2023-05-03T03:12:40.420Z,10.76
2023-05-03T03:13:40.431Z,10.82
2023-05-03T03:14:40.418Z,10.73
2023-05-03T03:15:40.444Z,10.72
2023-05-03T03:16:40.414Z,10.80
2023-05-03T03:17:40.397Z,10.73
2023-05-03T03:18:40.375Z,10.73
2023-05-03T03:19:40.340Z,10.75
2023-05-03T03:20:40.368Z,10.72
2023-05-03T03:21:40.311Z,10.70
2023-05-03T03:22:40.308Z,10.64
2023-05-03T03:23:40.314Z,10.68
2023-05-03T03:24:40.311Z,10.62
2023-05-03T03:25:40.276Z,10.58
2023-05-03T03:26:40.266Z,10.55
2023-05-03T03:27:40.249Z,10.52
2023-05-03T03:28:40.248Z,10.54
2023-05-03T03:29:40.226Z,10.49
2023-05-03T03:30:40.243Z,10.55
2023-05-03T03:31:40.235Z,10.55
2023-05-03T03:32:40.299Z,10.54
2023-05-03T03:33:40.202Z,10.43
2023-05-03T03:34:40.187Z,10.42
2023-05-03T03:35:40.196Z,10.46
2023-05-03T03:36:40.164Z,10.41
2023-05-03T03:37:40.150Z,10.42
2023-05-03T03:38:40.134Z,10.43
2023-05-03T03:39:40.188Z,10.42
2023-05-03T03:40:40.138Z,10.41
2023-05-03T03:41:40.100Z,10.30
2023-05-03T03:42:40.090Z,10.27
2023-05-03T03:43:40.075Z,10.31
2023-05-03T03:44:40.076Z,10.34
2023-05-03T03:45:40.087Z,10.30
2023-05-03T03:46:40.092Z,10.28
2023-05-03T03:47:40.046Z,10.30
2023-05-03T03:48:40.046Z,10.23
2023-05-03T03:49:40.022Z,10.31
2023-05-03T03:50:40.029Z,10.23
2023-05-03T03:51:39.995Z,10.28
2023-05-03T03:52:39.980Z,10.17
2023-05-03T03:53:39.970Z,10.23
2023-05-03T03:54:39.960Z,10.23
2023-05-03T03:55:40.102Z,10.27
2023-05-03T03:56:39.940Z,10.14
2023-05-03T03:57:39.927Z,10.18
2023-05-03T03:58:39.919Z,10.14
2023-05-03T03:59:39.907Z,10.06
2023-05-03T04:00:39.896Z,10.10
2023-05-03T04:01:39.908Z,10.08
2023-05-03T04:02:39.932Z,10.05
2023-05-03T04:03:39.976Z,10.08
2023-05-03T04:04:39.853Z,10.12
2023-05-03T04:05:39.842Z,10.08
2023-05-03T04:06:39.890Z,10.06
2023-05-03T04:07:39.819Z,10.05
2023-05-03T04:08:39.811Z,10.02
2023-05-03T04:09:39.799Z,9.98
2023-05-03T04:10:39.809Z,9.99
2023-05-03T04:11:39.829Z,10.05
2023-05-03T04:12:39.764Z,9.99
2023-05-03T04:13:39.754Z,10.03
2023-05-03T04:14:39.769Z,10.01
2023-05-03T04:15:39.732Z,9.96
2023-05-03T04:16:39.766Z,10.02
2023-05-03T04:17:39.776Z,9.99
2023-05-03T04:18:39.716Z,10.01
2023-05-03T04:19:39.700Z,9.96
2023-05-03T04:20:39.680Z,9.88
2023-05-03T04:21:39.663Z,9.91
2023-05-03T04:22:39.677Z,9.85
2023-05-03T04:23:39.665Z,9.87
2023-05-03T04:24:39.664Z,9.88
2023-05-03T04:25:39.623Z,9.90
2023-05-03T04:26:39.613Z,9.83
2023-05-03T04:27:39.624Z,9.88
2023-05-03T04:28:39.620Z,9.88
2023-05-03T04:29:39.608Z,9.83
2023-05-03T04:30:39.641Z,9.87
2023-05-03T04:31:39.557Z,9.83
2023-05-03T04:32:39.583Z,9.77
2023-05-03T04:33:39.539Z,9.83
2023-05-03T04:34:39.548Z,9.78
2023-05-03T04:35:39.517Z,9.78
2023-05-03T04:36:39.516Z,9.78
2023-05-03T04:37:39.490Z,9.84
2023-05-03T04:38:39.489Z,9.77
2023-05-03T04:39:39.486Z,9.78
2023-05-03T04:40:39.466Z,9.77
2023-05-03T04:41:39.453Z,9.70
2023-05-03T04:42:39.445Z,9.84
2023-05-03T04:43:39.488Z,9.80
2023-05-03T04:44:39.417Z,9.80
2023-05-03T04:45:39.411Z,9.80
2023-05-03T04:46:39.460Z,9.75
2023-05-03T04:47:39.431Z,9.75
2023-05-03T04:48:39.402Z,9.70
2023-05-03T04:49:39.361Z,9.80
2023-05-03T04:50:39.378Z,9.73
2023-05-03T04:51:39.364Z,9.73
2023-05-03T04:52:39.335Z,9.72
2023-05-03T04:53:39.319Z,9.77
2023-05-03T04:54:39.311Z,9.81
2023-05-03T04:55:39.299Z,9.80
2023-05-03T04:56:39.312Z,9.77
2023-05-03T04:57:39.277Z,9.77
2023-05-03T04:58:39.268Z,9.73
2023-05-03T04:59:39.274Z,9.80
2023-05-03T05:00:39.245Z,9.77
2023-05-03T05:01:39.299Z,9.78
2023-05-03T05:02:39.312Z,9.85
2023-05-03T05:03:39.288Z,9.80
2023-05-03T05:04:39.198Z,9.83
2023-05-03T05:05:39.190Z,9.81
2023-05-03T05:06:39.217Z,9.78
2023-05-03T05:07:39.191Z,9.73
2023-05-03T05:08:39.166Z,9.84
2023-05-03T05:09:39.142Z,9.84
2023-05-03T05:10:39.142Z,9.83
2023-05-03T05:11:39.124Z,9.85
2023-05-03T05:12:39.134Z,9.87
2023-05-03T05:13:39.105Z,9.88
2023-05-03T05:14:39.116Z,9.81
2023-05-03T05:15:39.115Z,9.93
2023-05-03T05:16:39.116Z,9.85
2023-05-03T05:17:39.208Z,9.98
2023-05-03T05:18:39.061Z,9.94
2023-05-03T05:19:39.045Z,9.94
2023-05-03T05:20:39.046Z,10.02
2023-05-03T05:21:39.019Z,9.99
2023-05-03T05:22:39.007Z,10.02
2023-05-03T05:23:39.026Z,9.99
2023-05-03T05:24:38.989Z,10.03
2023-05-03T05:25:38.968Z,10.02
2023-05-03T05:26:38.970Z,10.05
2023-05-03T05:27:38.974Z,10.03
2023-05-03T05:28:38.960Z,10.03
2023-05-03T05:29:38.929Z,10.03
2023-05-03T05:30:38.931Z,10.12
2023-05-03T05:31:38.987Z,10.08
2023-05-03T05:32:38.955Z,10.02
2023-05-03T05:33:38.881Z,10.12
2023-05-03T05:34:45.124Z,10.09
2023-05-03T05:35:39.858Z,10.14
2023-05-03T05:36:38.853Z,10.10
2023-05-03T05:37:38.902Z,10.14
2023-05-03T05:38:38.828Z,10.16
2023-05-03T05:39:38.845Z,10.17
2023-05-03T05:40:38.813Z,10.26
2023-05-03T05:41:38.795Z,10.21
2023-05-03T05:42:38.796Z,10.21
2023-05-03T05:43:38.792Z,10.23
2023-05-03T05:44:38.789Z,10.27
2023-05-03T05:45:38.749Z,10.26
2023-05-03T05:46:38.773Z,10.27
2023-05-03T05:47:38.838Z,10.28
2023-05-03T05:48:38.724Z,10.28
2023-05-03T05:49:38.732Z,10.28
2023-05-03T05:50:38.710Z,10.38
2023-05-03T05:51:38.683Z,10.39
2023-05-03T05:52:38.677Z,10.45
2023-05-03T05:53:38.670Z,10.46
2023-05-03T05:54:38.675Z,10.45
2023-05-03T05:55:38.651Z,10.43
2023-05-03T05:56:38.643Z,10.43
2023-05-03T05:57:38.652Z,10.39
2023-05-03T05:58:38.623Z,10.45
2023-05-03T05:59:38.594Z,10.52
2023-05-03T06:00:38.594Z,10.58
2023-05-03T06:01:38.615Z,10.58
2023-05-03T06:02:38.782Z,10.55
2023-05-03T06:03:38.578Z,10.68
2023-05-03T06:04:38.598Z,10.62
2023-05-03T06:05:38.683Z,10.62
2023-05-03T06:06:38.603Z,10.65
2023-05-03T06:07:38.518Z,10.75
2023-05-03T06:08:38.573Z,10.75
2023-05-03T06:09:38.490Z,10.75
2023-05-03T06:10:38.488Z,10.73
2023-05-03T06:11:38.496Z,10.80
2023-05-03T06:12:38.489Z,10.80
2023-05-03T06:13:38.572Z,10.83
2023-05-03T06:14:40.674Z,10.91
2023-05-03T06:15:39.440Z,10.91
2023-05-03T06:16:38.515Z,10.91
2023-05-03T06:17:38.469Z,10.94
2023-05-03T06:18:38.400Z,10.93
2023-05-03T06:19:38.407Z,11.05
2023-05-03T06:20:38.407Z,11.09
2023-05-03T06:21:38.374Z,11.08
2023-05-03T06:22:38.383Z,11.05
2023-05-03T06:23:38.364Z,11.04
2023-05-03T06:24:38.342Z,11.09
2023-05-03T06:25:38.324Z,11.05
2023-05-03T06:26:38.324Z,11.11
2023-05-03T06:27:38.340Z,11.13
2023-05-03T06:28:38.300Z,11.12
2023-05-03T06:29:38.280Z,11.15
2023-05-03T06:30:38.286Z,11.12
2023-05-03T06:31:38.528Z,11.23
2023-05-03T06:32:38.280Z,11.25
2023-05-03T06:33:38.258Z,11.19
2023-05-03T06:34:38.229Z,11.25
2023-05-03T06:35:38.241Z,11.28
2023-05-03T06:36:38.213Z,11.23
2023-05-03T06:37:38.196Z,11.33
2023-05-03T06:38:38.208Z,11.36
2023-05-03T06:39:38.192Z,11.43
2023-05-03T06:40:38.576Z,11.46
2023-05-03T06:41:38.155Z,11.45
2023-05-03T06:42:38.137Z,11.51
2023-05-03T06:43:38.141Z,11.48
2023-05-03T06:44:38.151Z,11.52
2023-05-03T06:45:38.108Z,11.59
2023-05-03T06:46:38.122Z,11.56
2023-05-03T06:47:38.106Z,11.64
2023-05-03T06:48:38.116Z,11.61
2023-05-03T06:49:38.085Z,11.66
2023-05-03T06:50:38.047Z,11.79
2023-05-03T06:51:38.208Z,11.74
2023-05-03T06:52:38.075Z,11.79
2023-05-03T06:53:38.026Z,11.76
2023-05-03T06:54:38.017Z,11.71
2023-05-03T06:55:38.017Z,11.79
2023-05-03T06:56:38.001Z,11.84
2023-05-03T06:57:37.999Z,11.87
2023-05-03T06:58:37.966Z,11.91
2023-05-03T06:59:37.976Z,11.93
2023-05-03T07:00:37.941Z,11.89
2023-05-03T07:01:37.982Z,11.87
2023-05-03T07:02:38.019Z,11.95
2023-05-03T07:03:40.088Z,12.04
2023-05-03T07:04:37.945Z,12.03
2023-05-03T07:05:37.898Z,12.04
2023-05-03T07:06:54.761Z,12.13
2023-05-03T07:07:39.000Z,12.13
2023-05-03T07:08:37.900Z,12.15
2023-05-03T07:09:43.236Z,12.23
2023-05-03T07:10:38.831Z,12.25
2023-05-03T07:11:37.828Z,12.26
2023-05-03T07:12:37.805Z,12.36
2023-05-03T07:13:37.799Z,12.41
2023-05-03T07:14:37.814Z,12.32
2023-05-03T07:15:37.780Z,12.43
2023-05-03T07:16:37.823Z,12.43
2023-05-03T07:17:37.851Z,12.47
2023-05-03T07:18:37.749Z,12.50
2023-05-03T07:19:37.747Z,12.55
2023-05-03T07:20:37.726Z,12.58
2023-05-03T07:21:37.720Z,12.65
2023-05-03T07:22:37.724Z,12.69
2023-05-03T07:23:37.761Z,12.69
2023-05-03T07:24:37.690Z,12.65
2023-05-03T07:25:37.682Z,12.71
2023-05-03T07:26:37.662Z,12.71
2023-05-03T07:27:37.677Z,12.79
2023-05-03T07:28:37.640Z,12.88
2023-05-03T07:29:37.642Z,12.90
2023-05-03T07:30:37.621Z,12.87
2023-05-03T07:31:37.621Z,12.90
2023-05-03T07:32:37.791Z,13.02
2023-05-03T07:33:37.928Z,12.93
2023-05-03T07:34:37.570Z,13.11
2023-05-03T07:35:37.567Z,13.08
2023-05-03T07:36:37.548Z,13.14
2023-05-03T07:37:37.565Z,13.21
2023-05-03T07:38:37.531Z,13.16
2023-05-03T07:39:37.597Z,13.26
2023-05-03T07:40:37.504Z,13.46
2023-05-03T07:41:37.509Z,13.40
2023-05-03T07:42:37.477Z,13.39
2023-05-03T07:43:37.488Z,13.45
2023-05-03T07:44:37.467Z,13.53
2023-05-03T07:45:37.497Z,13.53
2023-05-03T07:46:37.445Z,13.57
2023-05-03T07:47:37.493Z,13.61
2023-05-03T07:48:37.440Z,13.67
2023-05-03T07:49:37.411Z,13.68
2023-05-03T07:50:37.390Z,13.73
2023-05-03T07:51:37.404Z,13.76
2023-05-03T07:52:37.411Z,13.80
2023-05-03T07:53:37.365Z,13.86
2023-05-03T07:54:37.357Z,13.90
2023-05-03T07:55:37.363Z,14.01
2023-05-03T07:56:37.328Z,13.98
2023-05-03T07:57:37.342Z,14.08
2023-05-03T07:58:40.591Z,14.05
2023-05-03T07:59:37.299Z,14.16
2023-05-03T08:00:37.284Z,14.18
2023-05-03T08:01:37.281Z,14.22
2023-05-03T08:02:37.375Z,14.27
2023-05-03T08:03:37.416Z,14.33
2023-05-03T08:04:37.588Z,14.36
2023-05-03T08:05:37.322Z,14.38
2023-05-03T08:06:37.335Z,14.51
2023-05-03T08:07:37.232Z,14.52
2023-05-03T08:08:37.196Z,14.55
2023-05-03T08:09:37.188Z,14.58
2023-05-03T08:10:37.171Z,14.61
2023-05-03T08:11:37.209Z,14.61
2023-05-03T08:12:37.159Z,14.71
2023-05-03T08:13:37.160Z,14.70
2023-05-03T08:14:37.142Z,14.78
2023-05-03T08:15:37.140Z,14.90
2023-05-03T08:16:37.127Z,14.89
2023-05-03T08:17:37.136Z,14.93
2023-05-03T08:18:37.092Z,14.96
2023-05-03T08:19:37.086Z,14.97
2023-05-03T08:20:37.068Z,15.15
2023-05-03T08:21:37.084Z,15.04
2023-05-03T08:22:37.058Z,15.17
2023-05-03T08:23:37.042Z,15.17
2023-05-03T08:24:37.025Z,15.29
2023-05-03T08:25:37.015Z,15.35
2023-05-03T08:26:37.261Z,15.33
2023-05-03T08:27:37.070Z,15.50
2023-05-03T08:28:36.991Z,15.41
2023-05-03T08:29:36.974Z,15.54
2023-05-03T08:30:36.962Z,15.47
2023-05-03T08:31:37.028Z,15.52
2023-05-03T08:32:37.021Z,15.59
2023-05-03T08:33:36.960Z,15.62
2023-05-03T08:34:36.921Z,15.78
2023-05-03T08:35:36.922Z,15.77
2023-05-03T08:36:36.900Z,15.84
2023-05-03T08:37:36.914Z,15.87
2023-05-03T08:38:36.882Z,15.84
2023-05-03T08:39:36.869Z,16.00
2023-05-03T08:40:36.853Z,16.03
2023-05-03T08:41:36.845Z,16.03
2023-05-03T08:42:36.855Z,16.03
2023-05-03T08:43:37.039Z,16.13
2023-05-03T08:44:36.809Z,16.24
2023-05-03T08:45:36.802Z,16.24
2023-05-03T08:46:36.835Z,16.26
2023-05-03T08:47:36.793Z,16.21
2023-05-03T08:48:36.791Z,16.40
2023-05-03T08:49:36.759Z,16.44
2023-05-03T08:50:36.764Z,16.49
2023-05-03T08:51:36.738Z,16.57
2023-05-03T08:52:36.743Z,16.69
2023-05-03T08:53:36.721Z,16.64
2023-05-03T08:54:36.697Z,16.61
2023-05-03T08:55:36.697Z,16.70
2023-05-03T08:56:36.702Z,16.76
2023-05-03T08:57:36.666Z,16.74
2023-05-03T08:58:36.658Z,16.91
2023-05-03T08:59:36.679Z,16.97
2023-05-03T09:00:36.661Z,16.98
2023-05-03T09:01:36.716Z,17.01
2023-05-03T09:02:36.746Z,17.01
2023-05-03T09:03:36.705Z,17.09
2023-05-03T09:04:36.590Z,17.09
2023-05-03T09:05:36.600Z,17.25
2023-05-03T09:06:36.642Z,17.30
2023-05-03T09:07:36.560Z,17.30
2023-05-03T09:08:36.556Z,17.38
2023-05-03T09:09:36.572Z,17.41
2023-05-03T09:10:36.552Z,17.41
2023-05-03T09:11:36.535Z,17.54
2023-05-03T09:12:36.512Z,17.49
2023-05-03T09:13:36.497Z,17.63
2023-05-03T09:14:36.523Z,17.68
2023-05-03T09:15:36.643Z,17.73
2023-05-03T09:16:36.539Z,17.78
2023-05-03T09:17:36.500Z,17.83
2023-05-03T09:18:36.480Z,17.86
2023-05-03T09:19:36.433Z,17.90
2023-05-03T09:20:36.435Z,18.01
2023-05-03T09:21:36.427Z,18.01
2023-05-03T09:22:36.390Z,18.06
2023-05-03T09:23:36.447Z,18.13
2023-05-03T09:24:36.397Z,18.18
2023-05-03T09:25:36.368Z,18.18
2023-05-03T09:26:37.570Z,18.31
2023-05-03T09:27:36.365Z,18.41
2023-05-03T09:28:36.329Z,18.51
2023-05-03T09:29:36.333Z,18.38
2023-05-03T09:30:36.309Z,18.46
2023-05-03T09:31:36.535Z,18.61
2023-05-03T09:32:36.371Z,18.68
2023-05-03T09:33:36.288Z,18.78
2023-05-03T09:34:36.315Z,18.93
2023-05-03T09:35:36.265Z,18.97
2023-05-03T09:36:36.242Z,19.17
2023-05-03T09:37:36.295Z,19.31
2023-05-03T09:38:36.224Z,19.53
2023-05-03T09:39:36.218Z,19.63
2023-05-03T09:40:36.209Z,19.78
2023-05-03T09:41:36.220Z,19.87
2023-05-03T09:42:36.199Z,19.99
2023-05-03T09:43:36.228Z,20.08
2023-05-03T09:44:36.152Z,20.25
2023-05-03T09:45:36.185Z,20.33
2023-05-03T09:46:36.157Z,20.29
2023-05-03T09:47:36.196Z,20.42
2023-05-03T09:48:36.127Z,20.52
2023-05-03T09:49:36.106Z,20.61
2023-05-03T09:50:36.103Z,20.65
2023-05-03T09:51:36.105Z,20.79
2023-05-03T09:52:36.077Z,20.85
2023-05-03T09:53:36.092Z,20.82
2023-05-03T09:54:36.047Z,20.83
2023-05-03T09:55:36.053Z,20.95
2023-05-03T09:56:36.046Z,21.11
2023-05-03T09:57:36.011Z,21.08
2023-05-03T09:58:36.006Z,21.08
2023-05-03T09:59:36.003Z,21.23
2023-05-03T10:00:35.984Z,21.29
2023-05-03T10:01:36.051Z,21.28
2023-05-03T10:02:36.047Z,21.38
2023-05-03T10:03:36.024Z,21.35
2023-05-03T10:04:35.958Z,21.40
2023-05-03T10:05:35.932Z,21.60
2023-05-03T10:06:36.124Z,21.66
2023-05-03T10:07:35.933Z,21.84
2023-05-03T10:08:35.901Z,21.91
2023-05-03T10:09:35.890Z,21.97
2023-05-03T10:10:35.877Z,22.04
2023-05-03T10:11:35.900Z,22.18
2023-05-03T10:12:35.874Z,22.36
2023-05-03T10:13:35.843Z,22.41
2023-05-03T10:14:35.837Z,22.58
2023-05-03T10:15:35.855Z,22.62
2023-05-03T10:16:35.816Z,22.66
2023-05-03T10:17:47.750Z,22.83
2023-05-03T10:18:36.850Z,22.83
2023-05-03T10:19:35.909Z,22.96
2023-05-03T10:20:35.777Z,23.07
2023-05-03T10:21:35.762Z,23.15
2023-05-03T10:22:35.776Z,23.28
2023-05-03T10:23:35.737Z,23.26
2023-05-03T10:24:35.724Z,23.46
2023-05-03T10:25:35.747Z,23.54
2023-05-03T10:26:35.709Z,23.74
2023-05-03T10:27:35.709Z,23.84
2023-05-03T10:28:35.692Z,23.88
2023-05-03T10:29:35.673Z,24.08
2023-05-03T10:30:35.669Z,24.25
2023-05-03T10:31:35.729Z,24.37
2023-05-03T10:32:35.798Z,24.36
2023-05-03T10:33:35.716Z,24.60
2023-05-03T10:34:35.633Z,24.63
2023-05-03T10:35:35.647Z,24.78
2023-05-03T10:36:48.813Z,24.82
2023-05-03T10:37:36.604Z,24.90
2023-05-03T10:38:35.579Z,25.01
2023-05-03T10:39:35.561Z,25.06
2023-05-03T10:40:35.558Z,25.23
2023-05-03T10:41:35.565Z,25.19
2023-05-03T10:42:35.536Z,25.23
2023-05-03T10:43:35.520Z,25.23
2023-05-03T10:44:35.511Z,25.30
2023-05-03T10:45:35.524Z,25.37
2023-05-03T10:46:35.597Z,25.36
2023-05-03T10:47:35.488Z,25.26
2023-05-03T10:48:35.480Z,25.28
2023-05-03T10:49:35.456Z,25.33
2023-05-03T10:50:35.458Z,25.37
2023-05-03T10:51:35.469Z,25.37
2023-05-03T10:52:35.421Z,25.36
2023-05-03T10:53:35.421Z,25.31
2023-05-03T10:54:35.419Z,25.33
2023-05-03T10:55:35.396Z,25.30
2023-05-03T10:56:35.374Z,25.27
2023-05-03T10:57:35.367Z,25.28
2023-05-03T10:58:35.350Z,25.27
2023-05-03T10:59:35.366Z,25.37
2023-05-03T11:00:35.342Z,25.37
2023-05-03T11:01:35.382Z,25.37
2023-05-03T11:02:35.340Z,25.38
2023-05-03T11:03:35.313Z,25.43
2023-05-03T11:04:35.399Z,25.40
2023-05-03T11:05:35.282Z,25.46
2023-05-03T11:06:35.271Z,25.43
2023-05-03T11:07:35.313Z,25.52
2023-05-03T11:08:35.255Z,25.40
2023-05-03T11:09:35.265Z,25.53
2023-05-03T11:10:35.226Z,25.48
2023-05-03T11:11:35.214Z,25.46
2023-05-03T11:12:35.238Z,25.56
2023-05-03T11:13:35.227Z,25.59
2023-05-03T11:14:35.185Z,25.68
2023-05-03T11:15:35.200Z,25.59
2023-05-03T11:16:35.274Z,25.63
2023-05-03T11:17:35.177Z,25.68
2023-05-03T11:18:35.161Z,25.74
2023-05-03T11:19:35.134Z,25.77
2023-05-03T11:20:35.124Z,25.73
2023-05-03T11:21:35.106Z,25.73
2023-05-03T11:22:35.127Z,25.77
2023-05-03T11:23:35.110Z,25.81
2023-05-03T11:24:35.076Z,25.78
2023-05-03T11:25:35.072Z,25.85
2023-05-03T11:26:35.054Z,25.83
2023-05-03T11:27:35.064Z,25.88
2023-05-03T11:28:35.025Z,25.88
2023-05-03T11:29:35.018Z,25.90
2023-05-03T11:30:35.043Z,25.92
2023-05-03T11:31:35.057Z,25.98
2023-05-03T11:32:35.058Z,25.96
2023-05-03T11:33:34.991Z,25.92
2023-05-03T11:34:34.960Z,25.98
2023-05-03T11:35:34.946Z,25.98
2023-05-03T11:36:34.938Z,25.98
2023-05-03T11:37:34.929Z,26.05
2023-05-03T11:38:34.940Z,26.04
2023-05-03T11:39:34.938Z,26.12
2023-05-03T11:40:34.893Z,26.07
2023-05-03T11:41:34.884Z,26.21
2023-05-03T11:42:34.919Z,26.30
2023-05-03T11:43:34.894Z,26.33
2023-05-03T11:44:34.883Z,26.31
2023-05-03T11:45:34.887Z,26.31
2023-05-03T11:46:35.094Z,26.33
2023-05-03T11:47:34.880Z,26.45
2023-05-03T11:48:34.856Z,26.48
2023-05-03T11:49:34.799Z,26.42
2023-05-03T11:50:34.794Z,26.52
2023-05-03T11:51:34.793Z,26.53
2023-05-03T11:52:34.828Z,26.60
2023-05-03T11:53:34.772Z,26.60
2023-05-03T11:54:34.748Z,26.64
2023-05-03T11:55:34.832Z,26.70
2023-05-03T11:56:34.758Z,26.75
2023-05-03T11:57:34.738Z,26.85
2023-05-03T11:58:34.736Z,26.80
2023-05-03T11:59:34.713Z,26.83
2023-05-03T12:00:34.691Z,26.79
2023-05-03T12:01:34.701Z,26.78
2023-05-03T12:02:34.772Z,26.83
2023-05-03T12:03:34.818Z,26.94
2023-05-03T12:04:35.137Z,27.00
2023-05-03T12:05:35.119Z,27.01
2023-05-03T12:06:36.002Z,27.03
2023-05-03T12:07:34.950Z,26.94
2023-05-03T12:08:37.062Z,27.01
2023-05-03T12:09:35.719Z,27.08
2023-05-03T12:10:35.696Z,27.20
2023-05-03T12:11:36.519Z,27.17
2023-05-03T12:12:36.953Z,27.19
2023-05-03T12:13:35.345Z,27.26
2023-05-03T12:14:36.020Z,27.22
2023-05-03T12:15:36.713Z,27.31
2023-05-03T12:16:34.606Z,27.31
2023-05-03T12:17:36.923Z,27.41
2023-05-03T12:18:34.799Z,27.40
2023-05-03T12:19:35.803Z,27.38
2023-05-03T12:21:28.441Z,27.35
2023-05-03T12:21:36.213Z,27.44
2023-05-03T12:22:34.636Z,27.50
2023-05-03T12:23:34.711Z,27.44
2023-05-03T12:24:34.931Z,27.52
2023-05-03T12:25:35.846Z,27.57
2023-05-03T12:26:34.518Z,27.54
2023-05-03T12:27:36.694Z,27.57
2023-05-03T12:28:34.484Z,27.69
2023-05-03T12:29:35.598Z,27.54
2023-05-03T12:30:34.466Z,27.73
2023-05-03T12:31:34.997Z,27.69
2023-05-03T12:32:34.438Z,27.75
2023-05-03T12:33:36.061Z,27.70
2023-05-03T12:34:36.176Z,27.79
2023-05-03T12:35:34.691Z,27.75
2023-05-03T12:36:37.099Z,27.82
2023-05-03T12:37:36.887Z,27.83
2023-05-03T12:38:36.983Z,27.87
2023-05-03T12:39:36.515Z,27.93
2023-05-03T12:40:35.582Z,27.98
2023-05-03T12:42:05.585Z,28.00
2023-05-03T12:42:35.386Z,28.06
2023-05-03T12:43:34.357Z,28.10
2023-05-03T12:45:34.869Z,28.09
2023-05-03T12:46:35.390Z,28.13
2023-05-03T12:47:36.471Z,28.12
2023-05-03T12:48:34.294Z,28.10
2023-05-03T12:49:38.266Z,28.27
2023-05-03T12:50:38.438Z,28.30
2023-05-03T12:51:34.359Z,28.31
2023-05-03T12:52:37.882Z,28.22
2023-05-03T12:53:36.643Z,28.25
2023-05-03T12:54:34.308Z,28.24
2023-05-03T12:55:34.728Z,28.35